sensor_id;sensor_type;location;lat;lon;timestamp;P1;durP1;ratioP1;P2;durP2;ratioP2
6828;SDS011;17930;48.592;8.868;2023-04-25T00:01:45;5.63;;;3.57;;
6828;SDS011;17930;48.592;8.868;2023-04-25T00:04:12;4.50;;;3.60;;
6828;SDS011;17930;48.592;8.868;2023-04-25T00:06:40;4.97;;;3.53;;
6828;SDS011;17930;48.592;8.868;2023-04-25T00:09:07;4.67;;;3.70;;
6828;SDS011;17930;48.592;8.868;2023-04-25T00:11:34;4.63;;;3.67;;
6828;SDS011;17930;48.592;8.868;2023-04-25T00:14:02;7.73;;;4.00;;
6828;SDS011;17930;48.592;8.868;2023-04-25T00:16:29;6.60;;;4.13;;
6828;SDS011;17930;48.592;8.868;2023-04-25T00:18:59;6.67;;;3.37;;
6828;SDS011;17930;48.592;8.868;2023-04-25T00:21:26;5.43;;;3.60;;
6828;SDS011;17930;48.592;8.868;2023-04-25T00:23:54;7.73;;;4.20;;
6828;SDS011;17930;48.592;8.868;2023-04-25T00:26:22;5.37;;;3.73;;
6828;SDS011;17930;48.592;8.868;2023-04-25T00:28:48;6.53;;;3.83;;
6828;SDS011;17930;48.592;8.868;2023-04-25T00:31:15;5.87;;;3.87;;
6828;SDS011;17930;48.592;8.868;2023-04-25T00:33:41;5.93;;;4.07;;
6828;SDS011;17930;48.592;8.868;2023-04-25T00:36:08;6.27;;;4.30;;
6828;SDS011;17930;48.592;8.868;2023-04-25T00:38:35;4.73;;;3.70;;
6828;SDS011;17930;48.592;8.868;2023-04-25T00:41:05;5.27;;;3.30;;
6828;SDS011;17930;48.592;8.868;2023-04-25T00:43:32;7.13;;;3.77;;
6828;SDS011;17930;48.592;8.868;2023-04-25T00:45:59;6.87;;;4.13;;
6828;SDS011;17930;48.592;8.868;2023-04-25T00:48:26;4.70;;;3.53;;
6828;SDS011;17930;48.592;8.868;2023-04-25T00:50:53;5.50;;;3.47;;
6828;SDS011;17930;48.592;8.868;2023-04-25T00:53:21;5.93;;;4.13;;
6828;SDS011;17930;48.592;8.868;2023-04-25T00:55:49;5.77;;;3.87;;
6828;SDS011;17930;48.592;8.868;2023-04-25T00:58:17;6.27;;;4.13;;
6828;SDS011;17930;48.592;8.868;2023-04-25T01:00:44;4.40;;;4.00;;
6828;SDS011;17930;48.592;8.868;2023-04-25T01:03:12;5.60;;;4.00;;
6828;SDS011;17930;48.592;8.868;2023-04-25T01:05:39;7.87;;;4.13;;
6828;SDS011;17930;48.592;8.868;2023-04-25T01:08:07;6.13;;;3.93;;
6828;SDS011;17930;48.592;8.868;2023-04-25T01:10:34;5.67;;;4.20;;
6828;SDS011;17930;48.592;8.868;2023-04-25T01:13:01;4.93;;;3.70;;
6828;SDS011;17930;48.592;8.868;2023-04-25T01:15:29;4.83;;;3.73;;
6828;SDS011;17930;48.592;8.868;2023-04-25T01:17:56;6.13;;;4.00;;
6828;SDS011;17930;48.592;8.868;2023-04-25T01:20:23;4.17;;;3.17;;
6828;SDS011;17930;48.592;8.868;2023-04-25T01:22:53;5.53;;;3.33;;
6828;SDS011;17930;48.592;8.868;2023-04-25T01:25:21;5.73;;;3.73;;
6828;SDS011;17930;48.592;8.868;2023-04-25T01:27:48;5.17;;;3.67;;
6828;SDS011;17930;48.592;8.868;2023-04-25T01:30:15;4.77;;;2.97;;
6828;SDS011;17930;48.592;8.868;2023-04-25T01:32:42;4.00;;;3.03;;
6828;SDS011;17930;48.592;8.868;2023-04-25T01:35:10;3.87;;;2.97;;
6828;SDS011;17930;48.592;8.868;2023-04-25T01:37:38;4.63;;;3.27;;
6828;SDS011;17930;48.592;8.868;2023-04-25T01:40:07;4.23;;;3.20;;
6828;SDS011;17930;48.592;8.868;2023-04-25T01:42:35;4.87;;;3.00;;
6828;SDS011;17930;48.592;8.868;2023-04-25T01:45:03;9.53;;;3.50;;
6828;SDS011;17930;48.592;8.868;2023-04-25T01:47:31;3.73;;;2.70;;
6828;SDS011;17930;48.592;8.868;2023-04-25T01:49:57;3.70;;;2.70;;
6828;SDS011;17930;48.592;8.868;2023-04-25T01:52:24;6.67;;;3.20;;
6828;SDS011;17930;48.592;8.868;2023-04-25T01:54:51;3.83;;;2.70;;
6828;SDS011;17930;48.592;8.868;2023-04-25T01:57:20;7.73;;;3.23;;
6828;SDS011;17930;48.592;8.868;2023-04-25T01:59:46;3.83;;;2.90;;
6828;SDS011;17930;48.592;8.868;2023-04-25T02:02:13;3.27;;;2.57;;
6828;SDS011;17930;48.592;8.868;2023-04-25T02:04:40;5.00;;;2.67;;
6828;SDS011;17930;48.592;8.868;2023-04-25T02:07:06;4.37;;;2.77;;
6828;SDS011;17930;48.592;8.868;2023-04-25T02:09:33;4.00;;;2.97;;
6828;SDS011;17930;48.592;8.868;2023-04-25T02:11:59;6.50;;;2.73;;
6828;SDS011;17930;48.592;8.868;2023-04-25T02:14:28;4.53;;;3.20;;
6828;SDS011;17930;48.592;8.868;2023-04-25T02:16:55;3.83;;;2.83;;
6828;SDS011;17930;48.592;8.868;2023-04-25T02:19:22;8.70;;;3.80;;
6828;SDS011;17930;48.592;8.868;2023-04-25T02:21:48;4.13;;;2.83;;
6828;SDS011;17930;48.592;8.868;2023-04-25T02:24:15;5.73;;;3.00;;
6828;SDS011;17930;48.592;8.868;2023-04-25T02:26:42;6.13;;;3.17;;
6828;SDS011;17930;48.592;8.868;2023-04-25T02:29:09;6.70;;;3.47;;
6828;SDS011;17930;48.592;8.868;2023-04-25T02:31:37;5.65;;;3.85;;
6828;SDS011;17930;48.592;8.868;2023-04-25T02:34:03;5.60;;;3.55;;
6828;SDS011;17930;48.592;8.868;2023-04-25T02:36:30;6.93;;;4.40;;
6828;SDS011;17930;48.592;8.868;2023-04-25T02:38:59;5.90;;;4.03;;
6828;SDS011;17930;48.592;8.868;2023-04-25T02:41:26;5.50;;;4.07;;
6828;SDS011;17930;48.592;8.868;2023-04-25T02:43:52;6.20;;;4.17;;
6828;SDS011;17930;48.592;8.868;2023-04-25T02:46:19;6.07;;;4.00;;
6828;SDS011;17930;48.592;8.868;2023-04-25T02:48:47;9.17;;;4.67;;
6828;SDS011;17930;48.592;8.868;2023-04-25T02:51:14;4.30;;;3.70;;
6828;SDS011;17930;48.592;8.868;2023-04-25T02:53:41;6.88;;;4.32;;
6828;SDS011;17930;48.592;8.868;2023-04-25T02:56:08;6.27;;;4.03;;
6828;SDS011;17930;48.592;8.868;2023-04-25T02:58:34;6.22;;;4.65;;
6828;SDS011;17930;48.592;8.868;2023-04-25T03:01:01;6.67;;;4.00;;
6828;SDS011;17930;48.592;8.868;2023-04-25T03:03:28;5.18;;;3.95;;
6828;SDS011;17930;48.592;8.868;2023-04-25T03:05:56;5.30;;;4.10;;
6828;SDS011;17930;48.592;8.868;2023-04-25T03:08:22;8.43;;;4.30;;
6828;SDS011;17930;48.592;8.868;2023-04-25T03:10:50;7.87;;;3.63;;
6828;SDS011;17930;48.592;8.868;2023-04-25T03:13:18;4.90;;;3.57;;
6828;SDS011;17930;48.592;8.868;2023-04-25T03:15:45;5.97;;;3.50;;
6828;SDS011;17930;48.592;8.868;2023-04-25T03:18:12;6.87;;;3.70;;
6828;SDS011;17930;48.592;8.868;2023-04-25T03:20:39;4.77;;;3.43;;
6828;SDS011;17930;48.592;8.868;2023-04-25T03:23:08;6.03;;;3.97;;
6828;SDS011;17930;48.592;8.868;2023-04-25T03:25:34;6.97;;;4.07;;
6828;SDS011;17930;48.592;8.868;2023-04-25T03:28:01;4.93;;;4.17;;
6828;SDS011;17930;48.592;8.868;2023-04-25T03:30:28;7.23;;;3.53;;
6828;SDS011;17930;48.592;8.868;2023-04-25T03:32:54;6.50;;;3.97;;
6828;SDS011;17930;48.592;8.868;2023-04-25T03:35:21;4.50;;;3.30;;
6828;SDS011;17930;48.592;8.868;2023-04-25T03:37:49;7.10;;;3.47;;
6828;SDS011;17930;48.592;8.868;2023-04-25T03:40:16;7.87;;;4.10;;
6828;SDS011;17930;48.592;8.868;2023-04-25T03:42:43;5.47;;;3.90;;
6828;SDS011;17930;48.592;8.868;2023-04-25T03:45:10;6.80;;;4.40;;
6828;SDS011;17930;48.592;8.868;2023-04-25T03:47:36;7.47;;;4.30;;
6828;SDS011;17930;48.592;8.868;2023-04-25T03:50:03;6.72;;;3.90;;
6828;SDS011;17930;48.592;8.868;2023-04-25T03:52:30;5.28;;;3.80;;
6828;SDS011;17930;48.592;8.868;2023-04-25T03:54:57;5.63;;;3.95;;
6828;SDS011;17930;48.592;8.868;2023-04-25T03:57:24;6.28;;;4.10;;
6828;SDS011;17930;48.592;8.868;2023-04-25T03:59:51;8.95;;;4.35;;
6828;SDS011;17930;48.592;8.868;2023-04-25T04:02:18;7.13;;;3.90;;
6828;SDS011;17930;48.592;8.868;2023-04-25T04:04:44;6.75;;;4.07;;
6828;SDS011;17930;48.592;8.868;2023-04-25T04:07:11;6.13;;;4.13;;
6828;SDS011;17930;48.592;8.868;2023-04-25T04:09:38;7.78;;;4.40;;
6828;SDS011;17930;48.592;8.868;2023-04-25T04:12:04;5.75;;;3.95;;
6828;SDS011;17930;48.592;8.868;2023-04-25T04:14:33;7.03;;;4.05;;
6828;SDS011;17930;48.592;8.868;2023-04-25T04:16:59;7.35;;;3.97;;
6828;SDS011;17930;48.592;8.868;2023-04-25T04:19:26;7.18;;;3.95;;
6828;SDS011;17930;48.592;8.868;2023-04-25T04:21:53;6.43;;;4.25;;
6828;SDS011;17930;48.592;8.868;2023-04-25T04:24:19;6.50;;;4.05;;
6828;SDS011;17930;48.592;8.868;2023-04-25T04:26:46;9.30;;;5.40;;
6828;SDS011;17930;48.592;8.868;2023-04-25T04:29:12;8.38;;;4.88;;
6828;SDS011;17930;48.592;8.868;2023-04-25T04:31:47;8.55;;;4.78;;
6828;SDS011;17930;48.592;8.868;2023-04-25T04:34:14;8.35;;;4.63;;
6828;SDS011;17930;48.592;8.868;2023-04-25T04:36:41;7.88;;;4.68;;
6828;SDS011;17930;48.592;8.868;2023-04-25T04:39:10;7.75;;;4.63;;
6828;SDS011;17930;48.592;8.868;2023-04-25T04:41:36;9.35;;;5.38;;
6828;SDS011;17930;48.592;8.868;2023-04-25T04:44:03;7.60;;;5.05;;
6828;SDS011;17930;48.592;8.868;2023-04-25T04:46:31;8.18;;;4.82;;
6828;SDS011;17930;48.592;8.868;2023-04-25T04:49:04;12.77;;;5.67;;
6828;SDS011;17930;48.592;8.868;2023-04-25T04:51:31;7.18;;;4.88;;
6828;SDS011;17930;48.592;8.868;2023-04-25T04:53:58;8.40;;;5.50;;
6828;SDS011;17930;48.592;8.868;2023-04-25T04:56:27;8.05;;;5.28;;
6828;SDS011;17930;48.592;8.868;2023-04-25T04:58:54;7.47;;;4.60;;
6828;SDS011;17930;48.592;8.868;2023-04-25T05:01:21;7.80;;;5.10;;
6828;SDS011;17930;48.592;8.868;2023-04-25T05:03:48;10.43;;;4.82;;
6828;SDS011;17930;48.592;8.868;2023-04-25T05:06:16;8.68;;;6.32;;
6828;SDS011;17930;48.592;8.868;2023-04-25T05:08:44;8.30;;;5.03;;
6828;SDS011;17930;48.592;8.868;2023-04-25T05:11:10;8.17;;;5.13;;
6828;SDS011;17930;48.592;8.868;2023-04-25T05:13:37;8.17;;;4.70;;
6828;SDS011;17930;48.592;8.868;2023-04-25T05:16:04;8.63;;;4.43;;
6828;SDS011;17930;48.592;8.868;2023-04-25T05:18:30;8.18;;;4.97;;
6828;SDS011;17930;48.592;8.868;2023-04-25T05:20:57;7.27;;;4.13;;
6828;SDS011;17930;48.592;8.868;2023-04-25T05:23:25;6.17;;;4.53;;
6828;SDS011;17930;48.592;8.868;2023-04-25T05:25:53;5.73;;;4.47;;
6828;SDS011;17930;48.592;8.868;2023-04-25T05:28:19;7.63;;;4.47;;
6828;SDS011;17930;48.592;8.868;2023-04-25T05:30:46;6.70;;;4.38;;
6828;SDS011;17930;48.592;8.868;2023-04-25T05:33:13;7.67;;;4.53;;
6828;SDS011;17930;48.592;8.868;2023-04-25T05:35:39;10.90;;;4.73;;
6828;SDS011;17930;48.592;8.868;2023-04-25T05:38:06;7.33;;;4.17;;
6828;SDS011;17930;48.592;8.868;2023-04-25T05:40:34;7.80;;;3.80;;
6828;SDS011;17930;48.592;8.868;2023-04-25T05:43:00;5.67;;;3.10;;
6828;SDS011;17930;48.592;8.868;2023-04-25T05:45:27;4.83;;;2.90;;
6828;SDS011;17930;48.592;8.868;2023-04-25T05:47:54;4.63;;;3.30;;
6828;SDS011;17930;48.592;8.868;2023-04-25T05:50:21;5.20;;;3.33;;
6828;SDS011;17930;48.592;8.868;2023-04-25T05:52:47;4.97;;;3.07;;
6828;SDS011;17930;48.592;8.868;2023-04-25T05:55:14;4.13;;;2.80;;
6828;SDS011;17930;48.592;8.868;2023-04-25T05:57:42;4.70;;;2.47;;
6828;SDS011;17930;48.592;8.868;2023-04-25T06:00:11;4.10;;;2.43;;
6828;SDS011;17930;48.592;8.868;2023-04-25T06:02:40;4.80;;;2.53;;
6828;SDS011;17930;48.592;8.868;2023-04-25T06:05:07;4.13;;;2.50;;
6828;SDS011;17930;48.592;8.868;2023-04-25T06:07:34;6.13;;;2.63;;
6828;SDS011;17930;48.592;8.868;2023-04-25T06:10:02;5.23;;;2.23;;
6828;SDS011;17930;48.592;8.868;2023-04-25T06:12:31;5.67;;;2.53;;
6828;SDS011;17930;48.592;8.868;2023-04-25T06:15:00;7.07;;;2.90;;
6828;SDS011;17930;48.592;8.868;2023-04-25T06:17:27;5.00;;;2.27;;
6828;SDS011;17930;48.592;8.868;2023-04-25T06:19:53;3.30;;;2.40;;
6828;SDS011;17930;48.592;8.868;2023-04-25T06:22:20;4.33;;;2.37;;
6828;SDS011;17930;48.592;8.868;2023-04-25T06:24:46;3.60;;;2.60;;
6828;SDS011;17930;48.592;8.868;2023-04-25T06:27:13;3.03;;;2.00;;
6828;SDS011;17930;48.592;8.868;2023-04-25T06:29:39;5.37;;;2.33;;
6828;SDS011;17930;48.592;8.868;2023-04-25T06:32:07;4.40;;;2.70;;
6828;SDS011;17930;48.592;8.868;2023-04-25T06:34:34;8.60;;;2.50;;
6828;SDS011;17930;48.592;8.868;2023-04-25T06:37:01;4.27;;;2.10;;
6828;SDS011;17930;48.592;8.868;2023-04-25T06:39:27;4.40;;;2.60;;
6828;SDS011;17930;48.592;8.868;2023-04-25T06:41:54;5.20;;;2.70;;
6828;SDS011;17930;48.592;8.868;2023-04-25T06:44:20;3.80;;;2.50;;
6828;SDS011;17930;48.592;8.868;2023-04-25T06:46:48;3.73;;;2.50;;
6828;SDS011;17930;48.592;8.868;2023-04-25T06:49:16;3.87;;;3.00;;
6828;SDS011;17930;48.592;8.868;2023-04-25T06:51:43;4.63;;;3.23;;
6828;SDS011;17930;48.592;8.868;2023-04-25T06:54:09;4.50;;;3.43;;
6828;SDS011;17930;48.592;8.868;2023-04-25T06:56:36;8.97;;;3.83;;
6828;SDS011;17930;48.592;8.868;2023-04-25T06:59:02;7.10;;;5.13;;
6828;SDS011;17930;48.592;8.868;2023-04-25T07:01:29;10.37;;;6.23;;
6828;SDS011;17930;48.592;8.868;2023-04-25T07:03:56;10.90;;;6.20;;
6828;SDS011;17930;48.592;8.868;2023-04-25T07:06:24;5.90;;;3.93;;
6828;SDS011;17930;48.592;8.868;2023-04-25T07:08:53;5.80;;;3.90;;
6828;SDS011;17930;48.592;8.868;2023-04-25T07:11:20;8.83;;;6.00;;
6828;SDS011;17930;48.592;8.868;2023-04-25T07:13:47;8.40;;;4.20;;
6828;SDS011;17930;48.592;8.868;2023-04-25T07:16:14;7.53;;;3.50;;
6828;SDS011;17930;48.592;8.868;2023-04-25T07:18:40;6.93;;;3.80;;
6828;SDS011;17930;48.592;8.868;2023-04-25T07:21:07;7.67;;;3.83;;
6828;SDS011;17930;48.592;8.868;2023-04-25T07:23:35;8.27;;;3.63;;
6828;SDS011;17930;48.592;8.868;2023-04-25T07:26:02;7.27;;;4.17;;
6828;SDS011;17930;48.592;8.868;2023-04-25T07:28:29;4.30;;;3.43;;
6828;SDS011;17930;48.592;8.868;2023-04-25T07:30:56;5.83;;;4.23;;
6828;SDS011;17930;48.592;8.868;2023-04-25T07:33:23;11.70;;;4.47;;
6828;SDS011;17930;48.592;8.868;2023-04-25T07:35:49;6.20;;;4.17;;
6828;SDS011;17930;48.592;8.868;2023-04-25T07:38:16;8.93;;;5.07;;
6828;SDS011;17930;48.592;8.868;2023-04-25T07:40:44;8.60;;;5.00;;
6828;SDS011;17930;48.592;8.868;2023-04-25T07:43:10;18.40;;;9.43;;
6828;SDS011;17930;48.592;8.868;2023-04-25T07:45:40;12.20;;;7.50;;
6828;SDS011;17930;48.592;8.868;2023-04-25T07:48:06;6.83;;;4.73;;
6828;SDS011;17930;48.592;8.868;2023-04-25T07:50:33;7.40;;;4.70;;
6828;SDS011;17930;48.592;8.868;2023-04-25T07:52:59;6.43;;;4.47;;
6828;SDS011;17930;48.592;8.868;2023-04-25T07:55:26;5.57;;;4.23;;
6828;SDS011;17930;48.592;8.868;2023-04-25T07:57:54;6.53;;;3.73;;
6828;SDS011;17930;48.592;8.868;2023-04-25T08:00:21;5.93;;;3.90;;
6828;SDS011;17930;48.592;8.868;2023-04-25T08:02:47;5.80;;;3.73;;
6828;SDS011;17930;48.592;8.868;2023-04-25T08:05:16;5.00;;;3.90;;
6828;SDS011;17930;48.592;8.868;2023-04-25T08:07:42;5.90;;;3.87;;
6828;SDS011;17930;48.592;8.868;2023-04-25T08:10:09;6.33;;;3.97;;
6828;SDS011;17930;48.592;8.868;2023-04-25T08:12:36;7.33;;;4.90;;
6828;SDS011;17930;48.592;8.868;2023-04-25T08:15:05;7.97;;;5.67;;
6828;SDS011;17930;48.592;8.868;2023-04-25T08:17:32;5.90;;;4.33;;
6828;SDS011;17930;48.592;8.868;2023-04-25T08:19:59;5.77;;;4.10;;
6828;SDS011;17930;48.592;8.868;2023-04-25T08:22:25;7.70;;;4.50;;
6828;SDS011;17930;48.592;8.868;2023-04-25T08:24:52;8.13;;;4.40;;
6828;SDS011;17930;48.592;8.868;2023-04-25T08:27:18;7.10;;;4.43;;
6828;SDS011;17930;48.592;8.868;2023-04-25T08:29:46;6.15;;;4.35;;
6828;SDS011;17930;48.592;8.868;2023-04-25T08:32:14;5.53;;;3.73;;
6828;SDS011;17930;48.592;8.868;2023-04-25T08:34:40;7.67;;;4.67;;
6828;SDS011;17930;48.592;8.868;2023-04-25T08:37:09;6.17;;;4.17;;
6828;SDS011;17930;48.592;8.868;2023-04-25T08:39:36;6.83;;;4.67;;
6828;SDS011;17930;48.592;8.868;2023-04-25T08:42:02;8.90;;;5.00;;
6828;SDS011;17930;48.592;8.868;2023-04-25T08:44:33;6.30;;;3.87;;
6828;SDS011;17930;48.592;8.868;2023-04-25T08:47:00;5.00;;;3.80;;
6828;SDS011;17930;48.592;8.868;2023-04-25T08:49:29;6.57;;;4.40;;
6828;SDS011;17930;48.592;8.868;2023-04-25T08:51:57;5.57;;;3.57;;
6828;SDS011;17930;48.592;8.868;2023-04-25T08:54:26;4.60;;;3.60;;
6828;SDS011;17930;48.592;8.868;2023-04-25T08:56:56;5.70;;;4.05;;
6828;SDS011;17930;48.592;8.868;2023-04-25T08:59:23;6.25;;;3.65;;
6828;SDS011;17930;48.592;8.868;2023-04-25T09:01:50;3.75;;;3.10;;
6828;SDS011;17930;48.592;8.868;2023-04-25T09:04:17;4.97;;;3.00;;
6828;SDS011;17930;48.592;8.868;2023-04-25T09:06:46;2.47;;;2.13;;
6828;SDS011;17930;48.592;8.868;2023-04-25T09:09:13;3.83;;;2.45;;
6828;SDS011;17930;48.592;8.868;2023-04-25T09:11:40;2.42;;;2.00;;
6828;SDS011;17930;48.592;8.868;2023-04-25T09:14:11;3.05;;;1.83;;
6828;SDS011;17930;48.592;8.868;2023-04-25T09:19:33;2.03;;;1.42;;
6828;SDS011;17930;48.592;8.868;2023-04-25T09:22:02;2.17;;;1.08;;
6828;SDS011;17930;48.592;8.868;2023-04-25T09:24:31;1.73;;;1.05;;
6828;SDS011;17930;48.592;8.868;2023-04-25T09:27:04;2.05;;;1.10;;
6828;SDS011;17930;48.592;8.868;2023-04-25T09:29:31;0.90;;;0.77;;
6828;SDS011;17930;48.592;8.868;2023-04-25T09:32:13;1.05;;;0.80;;
6828;SDS011;17930;48.592;8.868;2023-04-25T09:34:45;0.75;;;0.75;;
6828;SDS011;17930;48.592;8.868;2023-04-25T09:37:18;3.80;;;1.73;;
6828;SDS011;17930;48.592;8.868;2023-04-25T09:39:47;0.57;;;0.47;;
6828;SDS011;17930;48.592;8.868;2023-04-25T09:42:14;2.35;;;0.90;;
6828;SDS011;17930;48.592;8.868;2023-04-25T09:44:42;1.05;;;0.80;;
6828;SDS011;17930;48.592;8.868;2023-04-25T09:47:10;0.70;;;0.60;;
6828;SDS011;17930;48.592;8.868;2023-04-25T09:49:39;0.90;;;0.60;;
6828;SDS011;17930;48.592;8.868;2023-04-25T09:52:07;0.90;;;0.70;;
6828;SDS011;17930;48.592;8.868;2023-04-25T09:54:36;0.77;;;0.68;;
6828;SDS011;17930;48.592;8.868;2023-04-25T09:57:05;1.52;;;1.05;;
6828;SDS011;17930;48.592;8.868;2023-04-25T09:59:38;2.70;;;1.45;;
6828;SDS011;17930;48.592;8.868;2023-04-25T10:02:06;1.48;;;1.30;;
6828;SDS011;17930;48.592;8.868;2023-04-25T10:04:34;1.50;;;0.80;;
6828;SDS011;17930;48.592;8.868;2023-04-25T10:07:02;3.58;;;1.83;;
6828;SDS011;17930;48.592;8.868;2023-04-25T10:09:31;1.20;;;0.85;;
6828;SDS011;17930;48.592;8.868;2023-04-25T10:12:00;1.60;;;1.30;;
6828;SDS011;17930;48.592;8.868;2023-04-25T10:14:29;0.90;;;0.68;;
6828;SDS011;17930;48.592;8.868;2023-04-25T10:16:55;1.08;;;0.60;;
6828;SDS011;17930;48.592;8.868;2023-04-25T10:19:23;0.85;;;0.68;;
6828;SDS011;17930;48.592;8.868;2023-04-25T10:21:52;1.38;;;1.15;;
6828;SDS011;17930;48.592;8.868;2023-04-25T10:24:22;1.30;;;0.50;;
6828;SDS011;17930;48.592;8.868;2023-04-25T10:26:49;1.00;;;0.60;;
6828;SDS011;17930;48.592;8.868;2023-04-25T10:29:23;2.83;;;1.43;;
6828;SDS011;17930;48.592;8.868;2023-04-25T10:31:50;0.83;;;0.50;;
6828;SDS011;17930;48.592;8.868;2023-04-25T10:34:17;3.87;;;1.97;;
6828;SDS011;17930;48.592;8.868;2023-04-25T10:36:48;2.47;;;1.57;;
6828;SDS011;17930;48.592;8.868;2023-04-25T10:39:21;1.50;;;1.03;;
6828;SDS011;17930;48.592;8.868;2023-04-25T10:41:52;3.10;;;1.80;;
6828;SDS011;17930;48.592;8.868;2023-04-25T10:44:20;0.83;;;0.80;;
6828;SDS011;17930;48.592;8.868;2023-04-25T10:46:48;1.60;;;0.60;;
6828;SDS011;17930;48.592;8.868;2023-04-25T10:49:31;2.53;;;1.43;;
6828;SDS011;17930;48.592;8.868;2023-04-25T10:54:42;1.93;;;1.53;;
6828;SDS011;17930;48.592;8.868;2023-04-25T10:57:31;4.03;;;3.13;;
6828;SDS011;17930;48.592;8.868;2023-04-25T11:00:06;1.33;;;0.77;;
6828;SDS011;17930;48.592;8.868;2023-04-25T11:02:43;0.67;;;0.30;;
6828;SDS011;17930;48.592;8.868;2023-04-25T11:05:19;0.30;;;0.30;;
6828;SDS011;17930;48.592;8.868;2023-04-25T11:07:49;2.50;;;1.27;;
6828;SDS011;17930;48.592;8.868;2023-04-25T11:10:18;0.30;;;0.30;;
6828;SDS011;17930;48.592;8.868;2023-04-25T11:12:45;0.30;;;0.30;;
6828;SDS011;17930;48.592;8.868;2023-04-25T11:15:13;0.90;;;0.57;;
6828;SDS011;17930;48.592;8.868;2023-04-25T11:17:40;2.20;;;0.80;;
6828;SDS011;17930;48.592;8.868;2023-04-25T11:20:10;0.60;;;0.60;;
6828;SDS011;17930;48.592;8.868;2023-04-25T11:22:39;1.50;;;0.80;;
6828;SDS011;17930;48.592;8.868;2023-04-25T11:25:07;0.80;;;0.80;;
6828;SDS011;17930;48.592;8.868;2023-04-25T11:27:37;1.57;;;0.50;;
6828;SDS011;17930;48.592;8.868;2023-04-25T11:30:12;0.50;;;0.50;;
6828;SDS011;17930;48.592;8.868;2023-04-25T11:32:41;1.40;;;1.00;;
6828;SDS011;17930;48.592;8.868;2023-04-25T11:35:09;4.37;;;2.37;;
6828;SDS011;17930;48.592;8.868;2023-04-25T11:37:38;0.40;;;0.40;;
6828;SDS011;17930;48.592;8.868;2023-04-25T11:40:06;0.40;;;0.40;;
6828;SDS011;17930;48.592;8.868;2023-04-25T11:42:36;0.40;;;0.40;;
6828;SDS011;17930;48.592;8.868;2023-04-25T11:45:03;0.50;;;0.50;;
6828;SDS011;17930;48.592;8.868;2023-04-25T11:47:31;0.40;;;0.40;;
6828;SDS011;17930;48.592;8.868;2023-04-25T11:49:59;0.47;;;0.47;;
6828;SDS011;17930;48.592;8.868;2023-04-25T11:52:36;0.40;;;0.40;;
6828;SDS011;17930;48.592;8.868;2023-04-25T11:55:04;0.40;;;0.40;;
6828;SDS011;17930;48.592;8.868;2023-04-25T11:57:32;0.53;;;0.50;;
6828;SDS011;17930;48.592;8.868;2023-04-25T12:00:05;0.60;;;0.60;;
6828;SDS011;17930;48.592;8.868;2023-04-25T12:02:34;1.00;;;0.83;;
6828;SDS011;17930;48.592;8.868;2023-04-25T12:05:01;0.93;;;0.80;;
6828;SDS011;17930;48.592;8.868;2023-04-25T12:07:28;2.07;;;1.10;;
6828;SDS011;17930;48.592;8.868;2023-04-25T12:09:56;1.93;;;1.50;;
6828;SDS011;17930;48.592;8.868;2023-04-25T12:12:26;1.80;;;1.50;;
6828;SDS011;17930;48.592;8.868;2023-04-25T12:14:53;2.50;;;1.80;;
6828;SDS011;17930;48.592;8.868;2023-04-25T12:17:20;2.60;;;2.10;;
6828;SDS011;17930;48.592;8.868;2023-04-25T12:19:48;3.67;;;2.13;;
6828;SDS011;17930;48.592;8.868;2023-04-25T12:22:18;2.80;;;2.20;;
6828;SDS011;17930;48.592;8.868;2023-04-25T12:24:47;2.20;;;1.90;;
6828;SDS011;17930;48.592;8.868;2023-04-25T12:27:15;3.77;;;2.10;;
6828;SDS011;17930;48.592;8.868;2023-04-25T12:29:50;2.10;;;1.70;;
6828;SDS011;17930;48.592;8.868;2023-04-25T12:32:17;2.30;;;1.67;;
6828;SDS011;17930;48.592;8.868;2023-04-25T12:34:43;2.57;;;2.00;;
6828;SDS011;17930;48.592;8.868;2023-04-25T12:37:11;2.33;;;1.90;;
6828;SDS011;17930;48.592;8.868;2023-04-25T12:39:38;3.57;;;2.13;;
6828;SDS011;17930;48.592;8.868;2023-04-25T12:42:05;2.97;;;1.90;;
6828;SDS011;17930;48.592;8.868;2023-04-25T12:44:34;3.43;;;2.10;;
6828;SDS011;17930;48.592;8.868;2023-04-25T12:47:00;2.70;;;2.00;;
6828;SDS011;17930;48.592;8.868;2023-04-25T12:49:28;2.30;;;1.70;;
6828;SDS011;17930;48.592;8.868;2023-04-25T12:51:54;2.87;;;1.80;;
6828;SDS011;17930;48.592;8.868;2023-04-25T12:54:21;3.30;;;1.87;;
6828;SDS011;17930;48.592;8.868;2023-04-25T12:56:48;2.50;;;1.40;;
6828;SDS011;17930;48.592;8.868;2023-04-25T12:59:15;1.73;;;1.40;;
6828;SDS011;17930;48.592;8.868;2023-04-25T13:01:43;2.47;;;1.90;;
6828;SDS011;17930;48.592;8.868;2023-04-25T13:04:10;5.13;;;2.03;;
6828;SDS011;17930;48.592;8.868;2023-04-25T13:06:37;1.87;;;1.67;;
6828;SDS011;17930;48.592;8.868;2023-04-25T13:09:03;1.57;;;1.47;;
6828;SDS011;17930;48.592;8.868;2023-04-25T13:11:31;1.90;;;1.57;;
6828;SDS011;17930;48.592;8.868;2023-04-25T13:13:58;2.13;;;1.93;;
6828;SDS011;17930;48.592;8.868;2023-04-25T13:16:25;1.93;;;1.60;;
6828;SDS011;17930;48.592;8.868;2023-04-25T13:18:53;2.73;;;2.43;;
6828;SDS011;17930;48.592;8.868;2023-04-25T13:21:21;6.17;;;2.00;;
6828;SDS011;17930;48.592;8.868;2023-04-25T13:23:48;2.50;;;1.80;;
6828;SDS011;17930;48.592;8.868;2023-04-25T13:26:14;3.53;;;1.90;;
6828;SDS011;17930;48.592;8.868;2023-04-25T13:28:41;3.27;;;1.83;;
6828;SDS011;17930;48.592;8.868;2023-04-25T13:31:08;2.30;;;1.93;;
6828;SDS011;17930;48.592;8.868;2023-04-25T13:33:34;2.90;;;1.87;;
6828;SDS011;17930;48.592;8.868;2023-04-25T13:36:02;2.13;;;1.80;;
6828;SDS011;17930;48.592;8.868;2023-04-25T13:38:30;2.83;;;2.07;;
6828;SDS011;17930;48.592;8.868;2023-04-25T13:40:57;2.30;;;1.20;;
6828;SDS011;17930;48.592;8.868;2023-04-25T13:43:23;1.30;;;1.20;;
6828;SDS011;17930;48.592;8.868;2023-04-25T13:45:50;1.23;;;1.10;;
6828;SDS011;17930;48.592;8.868;2023-04-25T13:48:17;1.63;;;1.10;;
6828;SDS011;17930;48.592;8.868;2023-04-25T13:50:45;2.10;;;1.90;;
6828;SDS011;17930;48.592;8.868;2023-04-25T13:53:13;2.17;;;1.73;;
6828;SDS011;17930;48.592;8.868;2023-04-25T13:55:39;2.30;;;2.10;;
6828;SDS011;17930;48.592;8.868;2023-04-25T13:58:06;2.93;;;2.33;;
6828;SDS011;17930;48.592;8.868;2023-04-25T14:00:35;4.07;;;2.80;;
6828;SDS011;17930;48.592;8.868;2023-04-25T14:03:04;3.33;;;2.53;;
6828;SDS011;17930;48.592;8.868;2023-04-25T14:05:32;2.87;;;2.50;;
6828;SDS011;17930;48.592;8.868;2023-04-25T14:08:04;2.40;;;2.10;;
6828;SDS011;17930;48.592;8.868;2023-04-25T14:10:35;3.57;;;2.70;;
6828;SDS011;17930;48.592;8.868;2023-04-25T14:13:03;5.37;;;2.40;;
6828;SDS011;17930;48.592;8.868;2023-04-25T14:15:30;3.07;;;2.50;;
6828;SDS011;17930;48.592;8.868;2023-04-25T14:17:58;3.67;;;2.67;;
6828;SDS011;17930;48.592;8.868;2023-04-25T14:20:25;3.13;;;2.70;;
6828;SDS011;17930;48.592;8.868;2023-04-25T14:22:52;3.20;;;2.90;;
6828;SDS011;17930;48.592;8.868;2023-04-25T14:25:19;3.30;;;2.30;;
6828;SDS011;17930;48.592;8.868;2023-04-25T14:27:47;3.17;;;2.57;;
6828;SDS011;17930;48.592;8.868;2023-04-25T14:30:15;2.53;;;1.97;;
6828;SDS011;17930;48.592;8.868;2023-04-25T14:32:42;3.40;;;2.17;;
6828;SDS011;17930;48.592;8.868;2023-04-25T14:35:09;2.87;;;2.23;;
6828;SDS011;17930;48.592;8.868;2023-04-25T14:37:35;2.20;;;2.00;;
6828;SDS011;17930;48.592;8.868;2023-04-25T14:40:02;1.90;;;1.80;;
6828;SDS011;17930;48.592;8.868;2023-04-25T14:42:29;4.47;;;2.17;;
6828;SDS011;17930;48.592;8.868;2023-04-25T14:44:58;3.70;;;2.37;;
6828;SDS011;17930;48.592;8.868;2023-04-25T14:47:25;2.70;;;2.10;;
6828;SDS011;17930;48.592;8.868;2023-04-25T14:49:51;3.10;;;2.20;;
6828;SDS011;17930;48.592;8.868;2023-04-25T14:52:19;2.80;;;2.13;;
6828;SDS011;17930;48.592;8.868;2023-04-25T14:54:46;5.03;;;2.30;;
6828;SDS011;17930;48.592;8.868;2023-04-25T14:57:13;2.10;;;1.80;;
6828;SDS011;17930;48.592;8.868;2023-04-25T14:59:40;3.60;;;1.60;;
6828;SDS011;17930;48.592;8.868;2023-04-25T15:02:08;3.10;;;1.77;;
6828;SDS011;17930;48.592;8.868;2023-04-25T15:04:35;1.50;;;1.40;;
6828;SDS011;17930;48.592;8.868;2023-04-25T15:07:01;1.80;;;1.60;;
6828;SDS011;17930;48.592;8.868;2023-04-25T15:09:29;2.23;;;1.70;;